sensor_id;sensor_type;location;lat;lon;timestamp;pressure;altitude;pressure_sealevel;temperature;humidity
78206;BME280;67480;48.920;12.880;2024-01-15T00:01:44;95607.09;;;-0.73;71.91
78206;BME280;67480;48.920;12.880;2024-01-15T00:04:09;95591.47;;;-0.72;71.79
78206;BME280;67480;48.920;12.880;2024-01-15T00:06:35;95582.53;;;-0.76;71.91
78206;BME280;67480;48.920;12.880;2024-01-15T00:09:00;95582.31;;;-0.74;71.50
78206;BME280;67480;48.920;12.880;2024-01-15T00:11:25;95579.94;;;-0.76;71.54
78206;BME280;67480;48.920;12.880;2024-01-15T00:13:51;95580.13;;;-0.77;71.98
78206;BME280;67480;48.920;12.880;2024-01-15T00:16:17;95574.00;;;-0.76;71.63
78206;BME280;67480;48.920;12.880;2024-01-15T00:18:42;95569.66;;;-0.76;71.66
78206;BME280;67480;48.920;12.880;2024-01-15T00:21:07;95584.31;;;-0.76;71.71
78206;BME280;67480;48.920;12.880;2024-01-15T00:23:33;95568.03;;;-0.77;72.14
78206;BME280;67480;48.920;12.880;2024-01-15T00:25:58;95569.22;;;-0.79;72.02
78206;BME280;67480;48.920;12.880;2024-01-15T00:28:23;95573.81;;;-0.75;71.80
78206;BME280;67480;48.920;12.880;2024-01-15T00:30:48;95573.81;;;-0.75;71.74
78206;BME280;67480;48.920;12.880;2024-01-15T00:33:14;95586.06;;;-0.77;71.32
78206;BME280;67480;48.920;12.880;2024-01-15T00:35:40;95575.44;;;-0.74;72.09
78206;BME280;67480;48.920;12.880;2024-01-15T00:38:05;95567.09;;;-0.76;71.33
78206;BME280;67480;48.920;12.880;2024-01-15T00:40:30;95576.38;;;-0.75;71.27
78206;BME280;67480;48.920;12.880;2024-01-15T00:42:56;95569.66;;;-0.76;71.78
78206;BME280;67480;48.920;12.880;2024-01-15T00:45:21;95557.97;;;-0.78;71.65
78206;BME280;67480;48.920;12.880;2024-01-15T00:47:46;95556.81;;;-0.76;71.80
78206;BME280;67480;48.920;12.880;2024-01-15T00:50:12;95547.66;;;-0.78;71.50
78206;BME280;67480;48.920;12.880;2024-01-15T00:52:37;95537.00;;;-0.75;71.30
78206;BME280;67480;48.920;12.880;2024-01-15T00:55:03;95540.75;;;-0.78;71.18
78206;BME280;67480;48.920;12.880;2024-01-15T00:57:28;95547.66;;;-0.78;71.04
78206;BME280;67480;48.920;12.880;2024-01-15T00:59:54;95542.94;;;-0.75;71.31
78206;BME280;67480;48.920;12.880;2024-01-15T01:02:19;95540.56;;;-0.76;71.15
78206;BME280;67480;48.920;12.880;2024-01-15T01:04:44;95524.31;;;-0.77;71.42
78206;BME280;67480;48.920;12.880;2024-01-15T01:07:09;95529.81;;;-0.80;71.01
78206;BME280;67480;48.920;12.880;2024-01-15T01:09:35;95529.47;;;-0.77;71.52
78206;BME280;67480;48.920;12.880;2024-01-15T01:12:00;95521.94;;;-0.78;71.57
78206;BME280;67480;48.920;12.880;2024-01-15T01:14:25;95518.38;;;-0.77;71.34
78206;BME280;67480;48.920;12.880;2024-01-15T01:16:51;95512.81;;;-0.81;71.05
78206;BME280;67480;48.920;12.880;2024-01-15T01:19:16;95525.84;;;-0.82;71.20
78206;BME280;67480;48.920;12.880;2024-01-15T01:21:41;95548.47;;;-0.78;71.22
78206;BME280;67480;48.920;12.880;2024-01-15T01:24:07;95546.88;;;-0.79;71.35
78206;BME280;67480;48.920;12.880;2024-01-15T01:26:32;95561.50;;;-0.79;71.10
78206;BME280;67480;48.920;12.880;2024-01-15T01:28:57;95567.44;;;-0.79;71.09
78206;BME280;67480;48.920;12.880;2024-01-15T01:31:23;95584.03;;;-0.81;70.90
78206;BME280;67480;48.920;12.880;2024-01-15T01:33:49;95593.53;;;-0.82;70.90
78206;BME280;67480;48.920;12.880;2024-01-15T01:36:14;95595.91;;;-0.80;71.13
78206;BME280;67480;48.920;12.880;2024-01-15T01:38:40;95596.28;;;-0.83;71.25
78206;BME280;67480;48.920;12.880;2024-01-15T01:41:06;95598.06;;;-0.84;71.10
78206;BME280;67480;48.920;12.880;2024-01-15T01:43:31;95606.56;;;-0.83;71.23
78206;BME280;67480;48.920;12.880;2024-01-15T01:45:57;95602.22;;;-0.83;70.96
78206;BME280;67480;48.920;12.880;2024-01-15T01:48:25;95592.91;;;-0.84;71.15
78206;BME280;67480;48.920;12.880;2024-01-15T01:50:53;95593.91;;;-0.85;71.26
78206;BME280;67480;48.920;12.880;2024-01-15T01:53:20;95600.63;;;-0.84;70.98
78206;BME280;67480;48.920;12.880;2024-01-15T01:55:46;95584.84;;;-0.81;70.69
78206;BME280;67480;48.920;12.880;2024-01-15T01:58:13;95580.84;;;-0.83;70.19
78206;BME280;67480;48.920;12.880;2024-01-15T02:00:39;95590.72;;;-0.87;70.15
78206;BME280;67480;48.920;12.880;2024-01-15T02:03:04;95594.44;;;-0.90;70.22
78206;BME280;67480;48.920;12.880;2024-01-15T02:05:30;95594.44;;;-0.90;69.92
78206;BME280;67480;48.920;12.880;2024-01-15T02:07:56;95591.88;;;-0.90;69.77
78206;BME280;67480;48.920;12.880;2024-01-15T02:10:21;95601.34;;;-0.90;69.39
78206;BME280;67480;48.920;12.880;2024-01-15T02:12:46;95595.75;;;-0.94;69.00
78206;BME280;67480;48.920;12.880;2024-01-15T02:15:14;95596.47;;;-1.00;69.00
78206;BME280;67480;48.920;12.880;2024-01-15T02:18:11;95618.66;;;-0.99;69.04
78206;BME280;67480;48.920;12.880;2024-01-15T02:20:36;95615.09;;;-0.98;68.60
78206;BME280;67480;48.920;12.880;2024-01-15T02:23:08;95609.34;;;-1.00;68.73
78206;BME280;67480;48.920;12.880;2024-01-15T02:25:36;95623.34;;;-1.02;69.02
78206;BME280;67480;48.920;12.880;2024-01-15T02:28:03;95632.94;;;-0.96;68.16
78206;BME280;67480;48.920;12.880;2024-01-15T02:30:29;95623.63;;;-0.97;68.72
78206;BME280;67480;48.920;12.880;2024-01-15T02:32:55;95635.84;;;-0.99;68.63
78206;BME280;67480;48.920;12.880;2024-01-15T02:35:20;95621.03;;;-0.97;68.50
78206;BME280;67480;48.920;12.880;2024-01-15T02:37:46;95622.66;;;-0.96;67.82
78206;BME280;67480;48.920;12.880;2024-01-15T02:40:11;95615.91;;;-0.97;68.12
78206;BME280;67480;48.920;12.880;2024-01-15T02:42:36;95625.22;;;-0.96;68.04
78206;BME280;67480;48.920;12.880;2024-01-15T02:45:03;95623.81;;;-0.99;68.20
78206;BME280;67480;48.920;12.880;2024-01-15T02:47:28;95634.88;;;-0.98;68.21
78206;BME280;67480;48.920;12.880;2024-01-15T02:49:53;95646.94;;;-0.99;67.88
78206;BME280;67480;48.920;12.880;2024-01-15T02:52:19;95651.09;;;-0.98;67.92
78206;BME280;67480;48.920;12.880;2024-01-15T02:54:44;95648.38;;;-0.96;68.12
78206;BME280;67480;48.920;12.880;2024-01-15T02:57:09;95660.25;;;-0.95;67.75
78206;BME280;67480;48.920;12.880;2024-01-15T02:59:35;95676.19;;;-1.00;67.83
78206;BME280;67480;48.920;12.880;2024-01-15T03:02:00;95665.91;;;-1.00;68.02
78206;BME280;67480;48.920;12.880;2024-01-15T03:04:25;95656.59;;;-1.01;67.88
78206;BME280;67480;48.920;12.880;2024-01-15T03:06:50;95664.13;;;-0.99;67.64
78206;BME280;67480;48.920;12.880;2024-01-15T03:09:16;95657.41;;;-1.00;67.84
78206;BME280;67480;48.920;12.880;2024-01-15T03:11:41;95661.75;;;-1.01;68.17
78206;BME280;67480;48.920;12.880;2024-01-15T03:14:06;95664.13;;;-0.99;67.87
78206;BME280;67480;48.920;12.880;2024-01-15T03:16:32;95672.84;;;-1.00;68.18
78206;BME280;67480;48.920;12.880;2024-01-15T03:18:57;95652.88;;;-0.98;68.05
78206;BME280;67480;48.920;12.880;2024-01-15T03:21:22;95656.59;;;-1.01;68.17
78206;BME280;67480;48.920;12.880;2024-01-15T03:23:48;95642.34;;;-1.03;67.60
78206;BME280;67480;48.920;12.880;2024-01-15T03:26:13;95648.47;;;-1.04;67.87
78206;BME280;67480;48.920;12.880;2024-01-15T03:28:38;95646.69;;;-1.04;67.98
78206;BME280;67480;48.920;12.880;2024-01-15T03:31:04;95646.69;;;-1.04;68.26
78206;BME280;67480;48.920;12.880;2024-01-15T03:33:29;95647.47;;;-1.03;68.12
78206;BME280;67480;48.920;12.880;2024-01-15T03:35:54;95635.97;;;-1.08;68.30
78206;BME280;67480;48.920;12.880;2024-01-15T03:38:20;95645.88;;;-1.04;68.42
78206;BME280;67480;48.920;12.880;2024-01-15T03:40:45;95642.34;;;-1.03;68.29
78206;BME280;67480;48.920;12.880;2024-01-15T03:43:10;95642.34;;;-1.03;68.17
78206;BME280;67480;48.920;12.880;2024-01-15T03:45:35;95629.63;;;-1.05;68.69
78206;BME280;67480;48.920;12.880;2024-01-15T03:48:01;95645.88;;;-1.04;68.11
78206;BME280;67480;48.920;12.880;2024-01-15T03:50:26;95649.88;;;-1.02;68.12
78206;BME280;67480;48.920;12.880;2024-01-15T03:52:51;95653.25;;;-1.01;68.16
78206;BME280;67480;48.920;12.880;2024-01-15T03:55:17;95655.19;;;-1.03;68.35
78206;BME280;67480;48.920;12.880;2024-01-15T03:57:42;95649.06;;;-1.02;68.36
78206;BME280;67480;48.920;12.880;2024-01-15T04:00:08;95643.31;;;-1.04;68.58
78206;BME280;67480;48.920;12.880;2024-01-15T04:02:33;95629.47;;;-1.03;68.40
78206;BME280;67480;48.920;12.880;2024-01-15T04:04:58;95621.94;;;-1.05;68.74
78206;BME280;67480;48.920;12.880;2024-01-15T04:07:24;95625.91;;;-1.02;68.11
78206;BME280;67480;48.920;12.880;2024-01-15T04:09:49;95626.13;;;-1.04;68.06
78206;BME280;67480;48.920;12.880;2024-01-15T04:12:14;95616.63;;;-1.03;68.49
78206;BME280;67480;48.920;12.880;2024-01-15T04:14:40;95626.13;;;-1.04;68.24
78206;BME280;67480;48.920;12.880;2024-01-15T04:17:05;95632.22;;;-1.05;67.95
78206;BME280;67480;48.920;12.880;2024-01-15T04:19:30;95625.31;;;-1.04;68.45
78206;BME280;67480;48.920;12.880;2024-01-15T04:21:55;95638.19;;;-1.04;68.07
78206;BME280;67480;48.920;12.880;2024-01-15T04:24:21;95633.63;;;-1.02;68.63
78206;BME280;67480;48.920;12.880;2024-01-15T04:26:47;95639.59;;;-1.02;68.50
78206;BME280;67480;48.920;12.880;2024-01-15T04:29:12;95616.00;;;-1.05;68.15
78206;BME280;67480;48.920;12.880;2024-01-15T04:31:37;95622.56;;;-1.03;68.03
78206;BME280;67480;48.920;12.880;2024-01-15T04:34:03;95630.09;;;-1.01;68.36
78206;BME280;67480;48.920;12.880;2024-01-15T04:36:28;95630.63;;;-1.06;68.70
78206;BME280;67480;48.920;12.880;2024-01-15T04:38:53;95626.47;;;-1.07;68.00
78206;BME280;67480;48.920;12.880;2024-01-15T04:41:19;95638.34;;;-1.06;68.19
78206;BME280;67480;48.920;12.880;2024-01-15T04:43:44;95630.63;;;-1.06;68.32
78206;BME280;67480;48.920;12.880;2024-01-15T04:46:09;95636.75;;;-1.07;68.17
78206;BME280;67480;48.920;12.880;2024-01-15T04:48:35;95636.41;;;-1.04;68.46
78206;BME280;67480;48.920;12.880;2024-01-15T04:51:00;95626.13;;;-1.04;68.65
78206;BME280;67480;48.920;12.880;2024-01-15T04:53:26;95621.50;;;-1.09;68.87
78206;BME280;67480;48.920;12.880;2024-01-15T04:55:51;95623.69;;;-1.05;68.44
78206;BME280;67480;48.920;12.880;2024-01-15T04:58:16;95620.19;;;-1.04;68.53
78206;BME280;67480;48.920;12.880;2024-01-15T05:00:42;95625.31;;;-1.04;68.79
78206;BME280;67480;48.920;12.880;2024-01-15T05:03:07;95626.13;;;-1.04;68.76
78206;BME280;67480;48.920;12.880;2024-01-15T05:05:33;95634.34;;;-1.09;68.33
78206;BME280;67480;48.920;12.880;2024-01-15T05:07:58;95614.75;;;-1.10;68.72
78206;BME280;67480;48.920;12.880;2024-01-15T05:10:23;95629.19;;;-1.09;68.77
78206;BME280;67480;48.920;12.880;2024-01-15T05:12:49;95616.34;;;-1.09;68.60
78206;BME280;67480;48.920;12.880;2024-01-15T05:15:14;95617.13;;;-1.08;68.78
78206;BME280;67480;48.920;12.880;2024-01-15T05:17:39;95622.28;;;-1.08;68.58
78206;BME280;67480;48.920;12.880;2024-01-15T05:20:05;95622.13;;;-1.06;69.10
78206;BME280;67480;48.920;12.880;2024-01-15T05:22:31;95625.69;;;-1.08;68.90
78206;BME280;67480;48.920;12.880;2024-01-15T05:24:56;95618.56;;;-1.05;69.07
78206;BME280;67480;48.920;12.880;2024-01-15T05:27:21;95619.97;;;-1.03;68.49
78206;BME280;67480;48.920;12.880;2024-01-15T05:29:47;95623.34;;;-1.02;68.68
78206;BME280;67480;48.920;12.880;2024-01-15T05:32:12;95615.63;;;-1.02;68.93
78206;BME280;67480;48.920;12.880;2024-01-15T05:34:37;95622.97;;;-0.99;69.20
78206;BME280;67480;48.920;12.880;2024-01-15T05:37:03;95617.25;;;-1.01;69.16
78206;BME280;67480;48.920;12.880;2024-01-15T05:39:28;95611.47;;;-1.03;69.05
78206;BME280;67480;48.920;12.880;2024-01-15T05:41:53;95604.38;;;-1.01;68.79
78206;BME280;67480;48.920;12.880;2024-01-15T05:44:19;95611.91;;;-1.00;69.08
78206;BME280;67480;48.920;12.880;2024-01-15T05:46:48;95606.34;;;-1.03;68.91
78206;BME280;67480;48.920;12.880;2024-01-15T05:49:13;95601.91;;;-1.10;68.83
78206;BME280;67480;48.920;12.880;2024-01-15T05:51:39;95603.13;;;-1.05;68.77
78206;BME280;67480;48.920;12.880;2024-01-15T05:54:04;95605.91;;;-1.07;69.44
78206;BME280;67480;48.920;12.880;2024-01-15T05:56:31;95614.03;;;-1.03;69.23
78206;BME280;67480;48.920;12.880;2024-01-15T05:58:56;95599.59;;;-1.04;69.43
78206;BME280;67480;48.920;12.880;2024-01-15T06:01:21;95608.28;;;-1.05;68.97
78206;BME280;67480;48.920;12.880;2024-01-15T06:03:47;95597.63;;;-1.02;69.08
78206;BME280;67480;48.920;12.880;2024-01-15T06:06:12;95605.69;;;-1.05;69.50
78206;BME280;67480;48.920;12.880;2024-01-15T06:08:37;95604.56;;;-1.03;69.47
78206;BME280;67480;48.920;12.880;2024-01-15T06:11:03;95604.38;;;-1.01;68.84
78206;BME280;67480;48.920;12.880;2024-01-15T06:13:28;95604.38;;;-1.01;69.64
78206;BME280;67480;48.920;12.880;2024-01-15T06:15:54;95602.78;;;-1.02;69.43
78206;BME280;67480;48.920;12.880;2024-01-15T06:18:19;95596.66;;;-1.01;69.65
78206;BME280;67480;48.920;12.880;2024-01-15T06:20:44;95603.41;;;-1.00;69.47
78206;BME280;67480;48.920;12.880;2024-01-15T06:23:10;95600.81;;;-1.00;69.23
78206;BME280;67480;48.920;12.880;2024-01-15T06:25:35;95600.19;;;-1.02;69.77
78206;BME280;67480;48.920;12.880;2024-01-15T06:28:00;95597.03;;;-1.04;69.25
78206;BME280;67480;48.920;12.880;2024-01-15T06:30:26;95597.19;;;-1.06;69.55
78206;BME280;67480;48.920;12.880;2024-01-15T06:32:51;95597.03;;;-1.04;69.75
78206;BME280;67480;48.920;12.880;2024-01-15T06:35:16;95593.63;;;-1.05;69.98
78206;BME280;67480;48.920;12.880;2024-01-15T06:37:42;95587.34;;;-1.02;69.81
78206;BME280;67480;48.920;12.880;2024-01-15T06:40:07;95587.72;;;-1.05;70.09
78206;BME280;67480;48.920;12.880;2024-01-15T06:42:33;95590.13;;;-1.04;70.40
78206;BME280;67480;48.920;12.880;2024-01-15T06:44:58;95579.81;;;-1.04;70.14
78206;BME280;67480;48.920;12.880;2024-01-15T06:47:24;95596.03;;;-1.03;70.28
78206;BME280;67480;48.920;12.880;2024-01-15T06:49:49;95583.56;;;-1.06;70.28
78206;BME280;67480;48.920;12.880;2024-01-15T06:52:15;95592.50;;;-1.02;70.54
78206;BME280;67480;48.920;12.880;2024-01-15T06:54:40;95583.34;;;-1.05;70.78
78206;BME280;67480;48.920;12.880;2024-01-15T06:57:06;95591.25;;;-1.06;70.74
78206;BME280;67480;48.920;12.880;2024-01-15T06:59:32;95585.94;;;-1.05;70.07
78206;BME280;67480;48.920;12.880;2024-01-15T07:01:57;95582.19;;;-1.02;70.07
78206;BME280;67480;48.920;12.880;2024-01-15T07:04:22;95579.19;;;-1.06;70.09
78206;BME280;67480;48.920;12.880;2024-01-15T07:06:47;95575.47;;;-1.03;70.30
78206;BME280;67480;48.920;12.880;2024-01-15T07:09:13;95590.53;;;-1.00;70.36
78206;BME280;67480;48.920;12.880;2024-01-15T07:11:38;95595.69;;;-1.00;70.70
78206;BME280;67480;48.920;12.880;2024-01-15T07:14:08;95602.59;;;-1.01;70.41
78206;BME280;67480;48.920;12.880;2024-01-15T07:16:34;95597.28;;;-0.99;70.39
78206;BME280;67480;48.920;12.880;2024-01-15T07:18:59;95589.56;;;-0.99;70.37
78206;BME280;67480;48.920;12.880;2024-01-15T07:21:24;95593.13;;;-1.00;70.07
78206;BME280;67480;48.920;12.880;2024-01-15T07:23:49;95585.41;;;-1.00;70.53
78206;BME280;67480;48.920;12.880;2024-01-15T07:26:15;95592.13;;;-0.99;70.83
78206;BME280;67480;48.920;12.880;2024-01-15T07:28:40;95588.75;;;-1.00;70.87
78206;BME280;67480;48.920;12.880;2024-01-15T07:31:05;95586.19;;;-1.00;70.88
78206;BME280;67480;48.920;12.880;2024-01-15T07:33:31;95591.16;;;-0.98;71.24
78206;BME280;67480;48.920;12.880;2024-01-15T07:35:56;95582.81;;;-1.00;70.60
78206;BME280;67480;48.920;12.880;2024-01-15T07:38:22;95592.13;;;-0.99;70.90
78206;BME280;67480;48.920;12.880;2024-01-15T07:40:47;95576.69;;;-0.99;70.87
78206;BME280;67480;48.920;12.880;2024-01-15T07:43:14;95575.91;;;-1.00;70.62
78206;BME280;67480;48.920;12.880;2024-01-15T07:45:40;95578.31;;;-0.98;71.11
78206;BME280;67480;48.920;12.880;2024-01-15T07:48:05;95585.81;;;-0.97;71.21
78206;BME280;67480;48.920;12.880;2024-01-15T07:50:31;95581.06;;;-1.00;70.78
78206;BME280;67480;48.920;12.880;2024-01-15T07:52:56;95589.56;;;-0.99;71.25
78206;BME280;67480;48.920;12.880;2024-01-15T07:55:21;95595.69;;;-1.00;71.06
78206;BME280;67480;48.920;12.880;2024-01-15T07:57:46;95596.31;;;-0.98;70.85
78206;BME280;67480;48.920;12.880;2024-01-15T08:00:12;95588.59;;;-0.98;71.02
78206;BME280;67480;48.920;12.880;2024-01-15T08:02:37;95582.31;;;-0.96;70.65
78206;BME280;67480;48.920;12.880;2024-01-15T08:05:03;95587.88;;;-0.92;71.11
78206;BME280;67480;48.920;12.880;2024-01-15T08:07:29;95578.75;;;-0.95;70.63
78206;BME280;67480;48.920;12.880;2024-01-15T08:09:54;95580.69;;;-0.97;71.05
78206;BME280;67480;48.920;12.880;2024-01-15T08:12:19;95582.09;;;-0.94;70.34
78206;BME280;67480;48.920;12.880;2024-01-15T08:14:45;95577.59;;;-0.92;70.94
78206;BME280;67480;48.920;12.880;2024-01-15T08:17:11;95582.72;;;-0.92;70.55
78206;BME280;67480;48.920;12.880;2024-01-15T08:19:36;95585.94;;;-0.90;70.50
78206;BME280;67480;48.920;12.880;2024-01-15T08:22:01;95587.50;;;-0.89;70.85
78206;BME280;67480;48.920;12.880;2024-01-15T08:24:27;95584.56;;;-0.86;71.09
78206;BME280;67480;48.920;12.880;2024-01-15T08:26:53;95583.25;;;-0.82;71.16
78206;BME280;67480;48.920;12.880;2024-01-15T08:29:19;95581.63;;;-0.83;70.75
78206;BME280;67480;48.920;12.880;2024-01-15T08:31:46;95572.97;;;-0.82;70.73
78206;BME280;67480;48.920;12.880;2024-01-15T08:34:11;95575.53;;;-0.82;71.06
78206;BME280;67480;48.920;12.880;2024-01-15T08:36:36;95562.47;;;-0.80;71.19
78206;BME280;67480;48.920;12.880;2024-01-15T08:39:02;95559.28;;;-0.82;71.56
78206;BME280;67480;48.920;12.880;2024-01-15T08:41:30;95564.63;;;-0.84;71.05
78206;BME280;67480;48.920;12.880;2024-01-15T08:43:55;95564.41;;;-0.82;71.34
78206;BME280;67480;48.920;12.880;2024-01-15T08:46:20;95566.19;;;-0.83;71.62
78206;BME280;67480;48.920;12.880;2024-01-15T08:48:46;95555.13;;;-0.83;71.62
78206;BME280;67480;48.920;12.880;2024-01-15T08:51:11;95558.13;;;-0.80;71.52
78206;BME280;67480;48.920;12.880;2024-01-15T08:53:36;95561.50;;;-0.79;71.33
78206;BME280;67480;48.920;12.880;2024-01-15T08:56:01;95543.84;;;-0.82;71.67
78206;BME280;67480;48.920;12.880;2024-01-15T08:58:27;95539.31;;;-0.80;71.25
78206;BME280;67480;48.920;12.880;2024-01-15T09:00:52;95555.19;;;-0.77;71.42
78206;BME280;67480;48.920;12.880;2024-01-15T09:03:18;95546.88;;;-0.79;71.82
78206;BME280;67480;48.920;12.880;2024-01-15T09:05:43;95544.91;;;-0.77;71.78
78206;BME280;67480;48.920;12.880;2024-01-15T09:08:08;95550.84;;;-0.76;71.40
78206;BME280;67480;48.920;12.880;2024-01-15T09:10:34;95557.41;;;-0.74;71.27
78206;BME280;67480;48.920;12.880;2024-01-15T09:12:59;95547.13;;;-0.74;71.56
78206;BME280;67480;48.920;12.880;2024-01-15T09:15:25;95545.34;;;-0.73;71.06
78206;BME280;67480;48.920;12.880;2024-01-15T09:17:50;95544.56;;;-0.74;71.56
78206;BME280;67480;48.920;12.880;2024-01-15T09:20:16;95550.28;;;-0.72;71.63
78206;BME280;67480;48.920;12.880;2024-01-15T09:22:41;95544.56;;;-0.74;71.49
78206;BME280;67480;48.920;12.880;2024-01-15T09:25:08;95553.06;;;-0.73;71.34
78206;BME280;67480;48.920;12.880;2024-01-15T09:27:35;95550.66;;;-0.75;71.47
78206;BME280;67480;48.920;12.880;2024-01-15T09:30:00;95550.50;;;-0.73;71.30
78206;BME280;67480;48.920;12.880;2024-01-15T09:32:25;95557.22;;;-0.72;71.22
78206;BME280;67480;48.920;12.880;2024-01-15T09:34:51;95555.63;;;-0.73;71.50
78206;BME280;67480;48.920;12.880;2024-01-15T09:37:16;95552.69;;;-0.70;71.65
78206;BME280;67480;48.920;12.880;2024-01-15T09:39:41;95557.06;;;-0.71;71.41
78206;BME280;67480;48.920;12.880;2024-01-15T09:42:07;95552.69;;;-0.70;71.04
78206;BME280;67480;48.920;12.880;2024-01-15T09:44:33;95559.63;;;-0.71;71.01
78206;BME280;67480;48.920;12.880;2024-01-15T09:46:59;95551.34;;;-0.66;71.02
78206;BME280;67480;48.920;12.880;2024-01-15T09:49:25;95548.97;;;-0.68;70.81
78206;BME280;67480;48.920;12.880;2024-01-15T09:51:50;95551.53;;;-0.68;70.83
78206;BME280;67480;48.920;12.880;2024-01-15T09:54:16;95547.34;;;-0.69;71.08
78206;BME280;67480;48.920;12.880;2024-01-15T09:56:45;95549.34;;;-0.71;70.67
78206;BME280;67480;48.920;12.880;2024-01-15T09:59:15;95548.78;;;-0.66;71.36
78206;BME280;67480;48.920;12.880;2024-01-15T10:01:41;95543.44;;;-0.65;71.00
78206;BME280;67480;48.920;12.880;2024-01-15T10:04:08;95536.91;;;-0.67;71.39
78206;BME280;67480;48.920;12.880;2024-01-15T10:06:33;95542.22;;;-0.69;71.48
78206;BME280;67480;48.920;12.880;2024-01-15T10:08:59;95542.84;;;-0.67;71.31
78206;BME280;67480;48.920;12.880;2024-01-15T10:11:25;95540.63;;;-0.70;70.98
78206;BME280;67480;48.920;12.880;2024-01-15T10:13:50;95538.69;;;-0.68;70.74
78206;BME280;67480;48.920;12.880;2024-01-15T10:16:20;95536.94;;;-0.60;70.82
78206;BME280;67480;48.920;12.880;2024-01-15T10:18:47;95535.53;;;-0.63;70.92
78206;BME280;67480;48.920;12.880;2024-01-15T10:21:13;95532.16;;;-0.64;70.70
78206;BME280;67480;48.920;12.880;2024-01-15T10:23:39;95533.59;;;-0.61;70.58
78206;BME280;67480;48.920;12.880;2024-01-15T10:26:05;95530.84;;;-0.59;70.53
78206;BME280;67480;48.920;12.880;2024-01-15T10:28:30;95528.63;;;-0.63;70.07
78206;BME280;67480;48.920;12.880;2024-01-15T10:30:57;95516.94;;;-0.65;70.29
78206;BME280;67480;48.920;12.880;2024-01-15T10:33:24;95527.44;;;-0.60;70.07
78206;BME280;67480;48.920;12.880;2024-01-15T10:35:59;95525.31;;;-0.56;70.36
78206;BME280;67480;48.920;12.880;2024-01-15T10:38:25;95515.41;;;-0.59;70.10
78206;BME280;67480;48.920;12.880;2024-01-15T10:40:51;95506.69;;;-0.58;70.49
78206;BME280;67480;48.920;12.880;2024-01-15T10:43:17;95513.41;;;-0.57;70.15
78206;BME280;67480;48.920;12.880;2024-01-15T10:45:44;95501.19;;;-0.55;70.24
78206;BME280;67480;48.920;12.880;2024-01-15T10:48:10;95495.41;;;-0.57;70.44
78206;BME280;67480;48.920;12.880;2024-01-15T10:50:36;95495.66;;;-0.52;70.31
78206;BME280;67480;48.920;12.880;2024-01-15T10:53:01;95491.50;;;-0.53;70.24
78206;BME280;67480;48.920;12.880;2024-01-15T10:55:28;95490.88;;;-0.55;70.11
78206;BME280;67480;48.920;12.880;2024-01-15T10:57:54;95482.00;;;-0.53;69.82
78206;BME280;67480;48.920;12.880;2024-01-15T11:00:21;95488.13;;;-0.54;70.26
78206;BME280;67480;48.920;12.880;2024-01-15T11:02:47;95484.41;;;-0.51;69.88
78206;BME280;67480;48.920;12.880;2024-01-15T11:05:12;95490.13;;;-0.49;70.01
78206;BME280;67480;48.920;12.880;2024-01-15T11:07:39;95484.19;;;-0.50;70.04
78206;BME280;67480;48.920;12.880;2024-01-15T11:10:06;95483.03;;;-0.47;70.34
78206;BME280;67480;48.920;12.880;2024-01-15T11:12:35;95489.19;;;-0.48;70.46
78206;BME280;67480;48.920;12.880;2024-01-15T11:15:03;95476.31;;;-0.48;70.57
78206;BME280;67480;48.920;12.880;2024-01-15T11:17:58;95488.56;;;-0.50;71.06
78206;BME280;67480;48.920;12.880;2024-01-15T11:20:28;95478.25;;;-0.50;70.63
78206;BME280;67480;48.920;12.880;2024-01-15T11:22:53;95477.47;;;-0.51;70.96
78206;BME280;67480;48.920;12.880;2024-01-15T11:25:21;95478.88;;;-0.48;71.16
78206;BME280;67480;48.920;12.880;2024-01-15T11:27:51;95467.59;;;-0.47;71.35
78206;BME280;67480;48.920;12.880;2024-01-15T11:30:17;95472.75;;;-0.47;70.98
78206;BME280;67480;48.920;12.880;2024-01-15T11:32:45;95467.44;;;-0.46;70.96
78206;BME280;67480;48.920;12.880;2024-01-15T11:35:12;95466.84;;;-0.41;70.83
78206;BME280;67480;48.920;12.880;2024-01-15T11:40:23;95456.94;;;-0.44;70.91
78206;BME280;67480;48.920;12.880;2024-01-15T11:43:03;95461.28;;;-0.45;70.78
78206;BME280;67480;48.920;12.880;2024-01-15T11:45:30;95451.03;;;-0.38;71.16
78206;BME280;67480;48.920;12.880;2024-01-15T11:50:41;95456.13;;;-0.45;70.74
78206;BME280;67480;48.920;12.880;2024-01-15T11:55:41;95456.56;;;-0.41;71.59
78206;BME280;67480;48.920;12.880;2024-01-15T11:58:10;95455.59;;;-0.40;71.24
78206;BME280;67480;48.920;12.880;2024-01-15T12:00:45;95462.31;;;-0.39;70.39
78206;BME280;67480;48.920;12.880;2024-01-15T12:03:12;95452.63;;;-0.37;70.86
78206;BME280;67480;48.920;12.880;2024-01-15T12:05:38;95453.84;;;-0.33;70.77
78206;BME280;67480;48.920;12.880;2024-01-15T12:08:04;95449.09;;;-0.29;70.72
78206;BME280;67480;48.920;12.880;2024-01-15T12:10:39;95445.75;;;-0.30;70.23
78206;BME280;67480;48.920;12.880;2024-01-15T12:13:10;95452.63;;;-0.37;70.51
78206;BME280;67480;48.920;12.880;2024-01-15T12:15:35;95439.97;;;-0.32;71.03
78206;BME280;67480;48.920;12.880;2024-01-15T12:18:02;95448.69;;;-0.33;70.86
78206;BME280;67480;48.920;12.880;2024-01-15T12:20:31;95441.97;;;-0.34;70.92
78206;BME280;67480;48.920;12.880;2024-01-15T12:22:57;95434.03;;;-0.32;71.23
78206;BME280;67480;48.920;12.880;2024-01-15T12:25:23;95436.44;;;-0.31;70.41
78206;BME280;67480;48.920;12.880;2024-01-15T12:27:50;95434.66;;;-0.30;70.76
78206;BME280;67480;48.920;12.880;2024-01-15T12:30:16;95438.03;;;-0.30;70.65
78206;BME280;67480;48.920;12.880;2024-01-15T12:32:42;95439.63;;;-0.29;70.88
78206;BME280;67480;48.920;12.880;2024-01-15T12:35:08;95429.91;;;-0.27;70.75
78206;BME280;67480;48.920;12.880;2024-01-15T12:37:38;95429.53;;;-0.24;70.59
78206;BME280;67480;48.920;12.880;2024-01-15T12:40:04;95429.91;;;-0.27;70.63
78206;BME280;67480;48.920;12.880;2024-01-15T12:42:41;95439.84;;;-0.24;70.50
78206;BME280;67480;48.920;12.880;2024-01-15T12:45:09;95434.69;;;-0.24;70.66
78206;BME280;67480;48.920;12.880;2024-01-15T12:47:36;95426.97;;;-0.24;70.87
78206;BME280;67480;48.920;12.880;2024-01-15T12:50:01;95424.38;;;-0.24;71.33
78206;BME280;67480;48.920;12.880;2024-01-15T12:52:29;95424.59;;;-0.25;70.86